sensor_id;sensor_type;location;lat;lon;timestamp;temperature;humidity
12761;DHT22;6444;49.742;6.114;2023-12-28T00:00:44;9.40;99.90
12761;DHT22;6444;49.742;6.114;2023-12-28T00:03:11;9.50;99.90
12761;DHT22;6444;49.742;6.114;2023-12-28T00:05:38;9.20;99.90
12761;DHT22;6444;49.742;6.114;2023-12-28T00:08:05;9.20;99.90
12761;DHT22;6444;49.742;6.114;2023-12-28T00:10:32;9.60;99.90
12761;DHT22;6444;49.742;6.114;2023-12-28T00:12:58;9.50;99.90
12761;DHT22;6444;49.742;6.114;2023-12-28T00:15:25;9.40;99.90
12761;DHT22;6444;49.742;6.114;2023-12-28T00:17:51;8.90;99.90
12761;DHT22;6444;49.742;6.114;2023-12-28T00:20:18;8.80;99.90
12761;DHT22;6444;49.742;6.114;2023-12-28T00:22:45;8.80;99.90
12761;DHT22;6444;49.742;6.114;2023-12-28T00:25:11;8.60;99.90
12761;DHT22;6444;49.742;6.114;2023-12-28T00:27:38;8.50;99.90
12761;DHT22;6444;49.742;6.114;2023-12-28T00:30:05;8.70;99.90
12761;DHT22;6444;49.742;6.114;2023-12-28T00:32:31;8.40;99.90
12761;DHT22;6444;49.742;6.114;2023-12-28T00:34:58;8.20;99.90
12761;DHT22;6444;49.742;6.114;2023-12-28T00:37:25;8.00;99.90
12761;DHT22;6444;49.742;6.114;2023-12-28T00:39:51;8.20;99.90
12761;DHT22;6444;49.742;6.114;2023-12-28T00:42:19;7.90;99.90
12761;DHT22;6444;49.742;6.114;2023-12-28T00:44:45;7.90;99.90
12761;DHT22;6444;49.742;6.114;2023-12-28T00:47:12;7.90;99.90
12761;DHT22;6444;49.742;6.114;2023-12-28T00:49:38;7.80;99.90
12761;DHT22;6444;49.742;6.114;2023-12-28T00:52:05;7.90;99.90
12761;DHT22;6444;49.742;6.114;2023-12-28T00:54:32;8.10;99.90
12761;DHT22;6444;49.742;6.114;2023-12-28T00:56:58;8.10;99.90
12761;DHT22;6444;49.742;6.114;2023-12-28T00:59:25;8.00;99.90
12761;DHT22;6444;49.742;6.114;2023-12-28T01:01:52;8.00;99.90
12761;DHT22;6444;49.742;6.114;2023-12-28T01:04:19;8.00;99.90
12761;DHT22;6444;49.742;6.114;2023-12-28T01:06:46;8.00;99.90
12761;DHT22;6444;49.742;6.114;2023-12-28T01:09:12;8.00;99.90
12761;DHT22;6444;49.742;6.114;2023-12-28T01:11:40;8.00;99.90
12761;DHT22;6444;49.742;6.114;2023-12-28T01:14:06;8.00;99.90
12761;DHT22;6444;49.742;6.114;2023-12-28T01:16:33;8.10;99.90
12761;DHT22;6444;49.742;6.114;2023-12-28T01:18:59;8.40;99.90
12761;DHT22;6444;49.742;6.114;2023-12-28T01:21:26;8.30;99.90
12761;DHT22;6444;49.742;6.114;2023-12-28T01:23:53;8.40;99.90
12761;DHT22;6444;49.742;6.114;2023-12-28T01:26:25;8.60;99.90
12761;DHT22;6444;49.742;6.114;2023-12-28T01:28:49;9.10;99.90
12761;DHT22;6444;49.742;6.114;2023-12-28T01:31:15;9.20;99.90
12761;DHT22;6444;49.742;6.114;2023-12-28T01:33:42;8.70;99.90
12761;DHT22;6444;49.742;6.114;2023-12-28T01:36:18;8.30;99.90
12761;DHT22;6444;49.742;6.114;2023-12-28T01:38:44;8.20;99.90
12761;DHT22;6444;49.742;6.114;2023-12-28T01:41:11;8.10;99.90
12761;DHT22;6444;49.742;6.114;2023-12-28T01:43:38;7.80;99.90
12761;DHT22;6444;49.742;6.114;2023-12-28T01:46:09;7.80;99.90
12761;DHT22;6444;49.742;6.114;2023-12-28T01:48:35;7.80;99.90
12761;DHT22;6444;49.742;6.114;2023-12-28T01:51:07;7.80;99.90
12761;DHT22;6444;49.742;6.114;2023-12-28T01:53:39;7.90;99.90
12761;DHT22;6444;49.742;6.114;2023-12-28T01:56:09;8.00;99.90
12761;DHT22;6444;49.742;6.114;2023-12-28T01:58:35;7.90;99.90
12761;DHT22;6444;49.742;6.114;2023-12-28T02:01:02;8.10;99.90
12761;DHT22;6444;49.742;6.114;2023-12-28T02:03:29;8.20;99.90
12761;DHT22;6444;49.742;6.114;2023-12-28T02:06:07;8.20;99.90
12761;DHT22;6444;49.742;6.114;2023-12-28T02:08:33;8.30;99.90
12761;DHT22;6444;49.742;6.114;2023-12-28T02:11:00;8.30;99.90
12761;DHT22;6444;49.742;6.114;2023-12-28T02:13:29;8.40;99.90
12761;DHT22;6444;49.742;6.114;2023-12-28T02:16:02;8.30;99.90
12761;DHT22;6444;49.742;6.114;2023-12-28T02:18:27;8.20;99.90
12761;DHT22;6444;49.742;6.114;2023-12-28T02:20:52;8.20;99.90
12761;DHT22;6444;49.742;6.114;2023-12-28T02:23:18;8.30;99.90
12761;DHT22;6444;49.742;6.114;2023-12-28T02:25:45;8.40;99.90
12761;DHT22;6444;49.742;6.114;2023-12-28T02:28:12;8.50;99.90
12761;DHT22;6444;49.742;6.114;2023-12-28T02:30:38;8.40;99.90
12761;DHT22;6444;49.742;6.114;2023-12-28T02:38:32;8.80;99.90
12761;DHT22;6444;49.742;6.114;2023-12-28T02:41:02;8.60;99.90
12761;DHT22;6444;49.742;6.114;2023-12-28T02:43:25;8.60;99.90
12761;DHT22;6444;49.742;6.114;2023-12-28T02:45:57;8.60;99.90
12761;DHT22;6444;49.742;6.114;2023-12-28T02:48:23;8.80;99.90
12761;DHT22;6444;49.742;6.114;2023-12-28T02:50:50;8.80;99.90
12761;DHT22;6444;49.742;6.114;2023-12-28T02:53:19;8.70;99.90
12761;DHT22;6444;49.742;6.114;2023-12-28T02:55:46;8.70;99.90
12761;DHT22;6444;49.742;6.114;2023-12-28T02:58:13;8.70;99.90
12761;DHT22;6444;49.742;6.114;2023-12-28T03:00:39;8.70;99.90
12761;DHT22;6444;49.742;6.114;2023-12-28T03:03:06;8.70;99.90
12761;DHT22;6444;49.742;6.114;2023-12-28T03:05:33;8.70;99.90
12761;DHT22;6444;49.742;6.114;2023-12-28T03:07:59;8.60;99.90
12761;DHT22;6444;49.742;6.114;2023-12-28T03:10:26;8.60;99.90
12761;DHT22;6444;49.742;6.114;2023-12-28T03:12:52;8.70;99.90
12761;DHT22;6444;49.742;6.114;2023-12-28T03:15:19;8.60;99.90
12761;DHT22;6444;49.742;6.114;2023-12-28T03:17:46;8.80;99.90
12761;DHT22;6444;49.742;6.114;2023-12-28T03:20:12;8.70;99.90
12761;DHT22;6444;49.742;6.114;2023-12-28T03:22:42;8.80;99.90
12761;DHT22;6444;49.742;6.114;2023-12-28T03:25:09;8.80;99.90
12761;DHT22;6444;49.742;6.114;2023-12-28T03:27:36;8.80;99.90
12761;DHT22;6444;49.742;6.114;2023-12-28T03:30:02;9.00;99.90
12761;DHT22;6444;49.742;6.114;2023-12-28T03:32:29;9.00;99.90
12761;DHT22;6444;49.742;6.114;2023-12-28T03:34:55;9.20;99.90
12761;DHT22;6444;49.742;6.114;2023-12-28T03:37:22;9.40;99.90
12761;DHT22;6444;49.742;6.114;2023-12-28T03:39:49;9.30;99.90
12761;DHT22;6444;49.742;6.114;2023-12-28T03:42:15;9.10;99.90
12761;DHT22;6444;49.742;6.114;2023-12-28T03:44:45;9.20;99.90
12761;DHT22;6444;49.742;6.114;2023-12-28T03:47:09;9.20;99.90
12761;DHT22;6444;49.742;6.114;2023-12-28T03:49:35;9.40;99.90
12761;DHT22;6444;49.742;6.114;2023-12-28T03:52:05;9.30;99.90
12761;DHT22;6444;49.742;6.114;2023-12-28T03:54:29;9.30;99.90
12761;DHT22;6444;49.742;6.114;2023-12-28T03:56:56;9.30;99.90
12761;DHT22;6444;49.742;6.114;2023-12-28T03:59:23;9.40;99.90
12761;DHT22;6444;49.742;6.114;2023-12-28T04:01:59;9.50;99.90
12761;DHT22;6444;49.742;6.114;2023-12-28T04:04:16;9.60;99.90
12761;DHT22;6444;49.742;6.114;2023-12-28T04:06:43;9.60;99.90
12761;DHT22;6444;49.742;6.114;2023-12-28T04:09:15;9.40;99.90
12761;DHT22;6444;49.742;6.114;2023-12-28T04:11:39;9.20;99.90
12761;DHT22;6444;49.742;6.114;2023-12-28T04:14:06;9.10;99.90
12761;DHT22;6444;49.742;6.114;2023-12-28T04:16:35;9.10;99.90
12761;DHT22;6444;49.742;6.114;2023-12-28T04:18:59;9.20;99.90
12761;DHT22;6444;49.742;6.114;2023-12-28T04:21:28;9.30;99.90
12761;DHT22;6444;49.742;6.114;2023-12-28T04:24:10;9.50;99.90
12761;DHT22;6444;49.742;6.114;2023-12-28T04:26:33;9.60;99.90
12761;DHT22;6444;49.742;6.114;2023-12-28T04:29:08;9.60;99.90
12761;DHT22;6444;49.742;6.114;2023-12-28T04:31:33;9.40;99.90
12761;DHT22;6444;49.742;6.114;2023-12-28T04:34:01;9.40;99.90
12761;DHT22;6444;49.742;6.114;2023-12-28T04:36:28;9.50;99.90
12761;DHT22;6444;49.742;6.114;2023-12-28T04:38:55;9.50;99.90
12761;DHT22;6444;49.742;6.114;2023-12-28T04:41:22;9.50;99.90
12761;DHT22;6444;49.742;6.114;2023-12-28T04:43:49;9.50;99.90
12761;DHT22;6444;49.742;6.114;2023-12-28T04:46:16;9.50;99.90
12761;DHT22;6444;49.742;6.114;2023-12-28T04:48:42;9.60;99.90
12761;DHT22;6444;49.742;6.114;2023-12-28T04:51:09;9.80;99.90
12761;DHT22;6444;49.742;6.114;2023-12-28T04:53:35;10.00;99.90
12761;DHT22;6444;49.742;6.114;2023-12-28T04:56:02;9.70;99.90
12761;DHT22;6444;49.742;6.114;2023-12-28T04:58:29;9.80;99.90
12761;DHT22;6444;49.742;6.114;2023-12-28T05:00:55;9.70;99.90
12761;DHT22;6444;49.742;6.114;2023-12-28T05:03:22;9.70;99.90
12761;DHT22;6444;49.742;6.114;2023-12-28T05:05:49;9.70;99.90
12761;DHT22;6444;49.742;6.114;2023-12-28T05:08:16;9.70;99.90
12761;DHT22;6444;49.742;6.114;2023-12-28T05:10:43;9.70;99.90
12761;DHT22;6444;49.742;6.114;2023-12-28T05:13:09;9.80;99.90
12761;DHT22;6444;49.742;6.114;2023-12-28T05:15:36;9.60;99.90
12761;DHT22;6444;49.742;6.114;2023-12-28T05:18:02;9.60;99.90
12761;DHT22;6444;49.742;6.114;2023-12-28T05:20:29;9.50;99.90
12761;DHT22;6444;49.742;6.114;2023-12-28T05:22:56;9.50;99.90
12761;DHT22;6444;49.742;6.114;2023-12-28T05:25:22;9.60;99.90
12761;DHT22;6444;49.742;6.114;2023-12-28T05:27:49;9.80;99.90
12761;DHT22;6444;49.742;6.114;2023-12-28T05:30:16;10.00;99.90
12761;DHT22;6444;49.742;6.114;2023-12-28T05:32:43;9.90;99.90
12761;DHT22;6444;49.742;6.114;2023-12-28T05:35:10;9.90;99.90
12761;DHT22;6444;49.742;6.114;2023-12-28T05:37:36;9.90;99.90
12761;DHT22;6444;49.742;6.114;2023-12-28T05:40:04;10.10;99.90
12761;DHT22;6444;49.742;6.114;2023-12-28T05:42:30;10.10;99.90
12761;DHT22;6444;49.742;6.114;2023-12-28T05:44:57;10.30;99.90
12761;DHT22;6444;49.742;6.114;2023-12-28T05:47:23;10.30;99.90
12761;DHT22;6444;49.742;6.114;2023-12-28T05:49:50;10.30;99.90
12761;DHT22;6444;49.742;6.114;2023-12-28T05:52:17;10.30;99.90
12761;DHT22;6444;49.742;6.114;2023-12-28T05:54:43;10.60;99.90
12761;DHT22;6444;49.742;6.114;2023-12-28T05:57:10;10.10;99.90
12761;DHT22;6444;49.742;6.114;2023-12-28T05:59:40;9.90;99.90
12761;DHT22;6444;49.742;6.114;2023-12-28T06:02:06;9.90;99.90
12761;DHT22;6444;49.742;6.114;2023-12-28T06:04:33;9.80;99.90
12761;DHT22;6444;49.742;6.114;2023-12-28T06:06:59;9.90;99.90
12761;DHT22;6444;49.742;6.114;2023-12-28T06:09:26;10.00;99.90
12761;DHT22;6444;49.742;6.114;2023-12-28T06:11:53;10.30;99.90
12761;DHT22;6444;49.742;6.114;2023-12-28T06:14:19;10.10;99.90
12761;DHT22;6444;49.742;6.114;2023-12-28T06:16:47;10.00;99.90
12761;DHT22;6444;49.742;6.114;2023-12-28T06:19:13;10.00;99.90
12761;DHT22;6444;49.742;6.114;2023-12-28T06:21:40;9.70;99.90
12761;DHT22;6444;49.742;6.114;2023-12-28T06:24:07;10.10;99.90
12761;DHT22;6444;49.742;6.114;2023-12-28T06:26:38;10.00;99.90
12761;DHT22;6444;49.742;6.114;2023-12-28T06:29:01;10.10;99.90
12761;DHT22;6444;49.742;6.114;2023-12-28T06:31:27;10.40;99.90
12761;DHT22;6444;49.742;6.114;2023-12-28T06:33:55;10.50;99.90
12761;DHT22;6444;49.742;6.114;2023-12-28T06:36:21;10.50;99.90
12761;DHT22;6444;49.742;6.114;2023-12-28T06:38:48;10.20;99.90
12761;DHT22;6444;49.742;6.114;2023-12-28T06:41:14;10.20;99.90
12761;DHT22;6444;49.742;6.114;2023-12-28T06:43:42;9.90;99.90
12761;DHT22;6444;49.742;6.114;2023-12-28T06:46:09;9.90;99.90
12761;DHT22;6444;49.742;6.114;2023-12-28T06:48:35;9.80;99.90
12761;DHT22;6444;49.742;6.114;2023-12-28T06:51:02;9.80;99.90
12761;DHT22;6444;49.742;6.114;2023-12-28T06:53:28;10.00;99.90
12761;DHT22;6444;49.742;6.114;2023-12-28T06:55:55;10.20;99.90
12761;DHT22;6444;49.742;6.114;2023-12-28T06:58:22;10.50;99.90
12761;DHT22;6444;49.742;6.114;2023-12-28T07:00:48;10.60;99.90
12761;DHT22;6444;49.742;6.114;2023-12-28T07:03:15;10.30;99.90
12761;DHT22;6444;49.742;6.114;2023-12-28T07:05:42;10.20;99.90
12761;DHT22;6444;49.742;6.114;2023-12-28T07:08:08;10.20;99.90
12761;DHT22;6444;49.742;6.114;2023-12-28T07:10:35;10.10;99.90
12761;DHT22;6444;49.742;6.114;2023-12-28T07:13:02;10.30;99.90
12761;DHT22;6444;49.742;6.114;2023-12-28T07:15:29;10.30;99.90
12761;DHT22;6444;49.742;6.114;2023-12-28T07:17:55;10.30;99.90
12761;DHT22;6444;49.742;6.114;2023-12-28T07:20:22;10.40;99.90
12761;DHT22;6444;49.742;6.114;2023-12-28T07:22:49;10.40;99.90
12761;DHT22;6444;49.742;6.114;2023-12-28T07:25:16;10.40;99.90
12761;DHT22;6444;49.742;6.114;2023-12-28T07:27:43;10.40;99.90
12761;DHT22;6444;49.742;6.114;2023-12-28T07:30:10;10.80;99.90
12761;DHT22;6444;49.742;6.114;2023-12-28T07:32:37;10.80;99.90
12761;DHT22;6444;49.742;6.114;2023-12-28T07:35:04;10.70;99.90
12761;DHT22;6444;49.742;6.114;2023-12-28T07:37:30;10.30;99.90
12761;DHT22;6444;49.742;6.114;2023-12-28T07:39:57;10.50;99.90
12761;DHT22;6444;49.742;6.114;2023-12-28T07:42:24;10.50;99.90
12761;DHT22;6444;49.742;6.114;2023-12-28T07:44:50;10.60;99.90
12761;DHT22;6444;49.742;6.114;2023-12-28T07:47:17;10.90;99.90
12761;DHT22;6444;49.742;6.114;2023-12-28T07:49:43;10.80;99.90
12761;DHT22;6444;49.742;6.114;2023-12-28T07:52:11;10.70;99.90
12761;DHT22;6444;49.742;6.114;2023-12-28T07:54:37;10.70;99.90
12761;DHT22;6444;49.742;6.114;2023-12-28T07:57:04;10.40;99.90
12761;DHT22;6444;49.742;6.114;2023-12-28T07:59:31;10.10;99.90
12761;DHT22;6444;49.742;6.114;2023-12-28T08:01:57;10.20;99.90
12761;DHT22;6444;49.742;6.114;2023-12-28T08:04:24;10.40;99.90
12761;DHT22;6444;49.742;6.114;2023-12-28T08:06:51;10.40;99.90
12761;DHT22;6444;49.742;6.114;2023-12-28T08:09:17;10.20;99.90
12761;DHT22;6444;49.742;6.114;2023-12-28T08:11:44;10.10;99.90
12761;DHT22;6444;49.742;6.114;2023-12-28T08:14:11;9.80;99.90
12761;DHT22;6444;49.742;6.114;2023-12-28T08:16:37;9.80;99.90
12761;DHT22;6444;49.742;6.114;2023-12-28T08:19:05;10.30;99.90
12761;DHT22;6444;49.742;6.114;2023-12-28T08:21:31;10.20;99.90
12761;DHT22;6444;49.742;6.114;2023-12-28T08:23:58;10.10;99.90
12761;DHT22;6444;49.742;6.114;2023-12-28T08:26:24;10.00;99.90
12761;DHT22;6444;49.742;6.114;2023-12-28T08:28:51;10.00;99.90
12761;DHT22;6444;49.742;6.114;2023-12-28T08:31:18;10.10;99.90
12761;DHT22;6444;49.742;6.114;2023-12-28T08:33:44;10.10;99.90
12761;DHT22;6444;49.742;6.114;2023-12-28T08:36:12;10.30;99.90
12761;DHT22;6444;49.742;6.114;2023-12-28T08:38:38;10.30;99.90
12761;DHT22;6444;49.742;6.114;2023-12-28T08:41:05;10.10;99.90
12761;DHT22;6444;49.742;6.114;2023-12-28T08:43:32;10.10;99.90
12761;DHT22;6444;49.742;6.114;2023-12-28T08:45:58;10.10;99.90
12761;DHT22;6444;49.742;6.114;2023-12-28T08:48:26;10.10;99.90
12761;DHT22;6444;49.742;6.114;2023-12-28T08:50:52;10.10;99.90
12761;DHT22;6444;49.742;6.114;2023-12-28T08:53:19;10.40;99.90
12761;DHT22;6444;49.742;6.114;2023-12-28T08:55:45;10.30;99.90
12761;DHT22;6444;49.742;6.114;2023-12-28T08:58:12;10.30;99.90
12761;DHT22;6444;49.742;6.114;2023-12-28T09:00:39;10.20;99.90
12761;DHT22;6444;49.742;6.114;2023-12-28T09:03:05;10.00;99.90
12761;DHT22;6444;49.742;6.114;2023-12-28T09:05:34;9.90;99.90
12761;DHT22;6444;49.742;6.114;2023-12-28T09:08:02;10.00;99.90
12761;DHT22;6444;49.742;6.114;2023-12-28T09:10:29;10.00;99.90
12761;DHT22;6444;49.742;6.114;2023-12-28T09:12:55;10.00;99.90
12761;DHT22;6444;49.742;6.114;2023-12-28T09:15:22;10.20;99.90
12761;DHT22;6444;49.742;6.114;2023-12-28T09:17:49;10.50;99.90
12761;DHT22;6444;49.742;6.114;2023-12-28T09:20:15;10.40;99.90
12761;DHT22;6444;49.742;6.114;2023-12-28T09:22:43;10.70;99.90
12761;DHT22;6444;49.742;6.114;2023-12-28T09:25:09;10.70;99.90
12761;DHT22;6444;49.742;6.114;2023-12-28T09:27:36;10.80;99.90
12761;DHT22;6444;49.742;6.114;2023-12-28T09:30:03;10.60;99.90
12761;DHT22;6444;49.742;6.114;2023-12-28T09:32:29;10.60;99.90
12761;DHT22;6444;49.742;6.114;2023-12-28T09:34:56;10.80;99.90
12761;DHT22;6444;49.742;6.114;2023-12-28T09:37:23;11.00;99.90
12761;DHT22;6444;49.742;6.114;2023-12-28T09:39:50;10.90;99.90
12761;DHT22;6444;49.742;6.114;2023-12-28T09:42:17;10.90;99.90
12761;DHT22;6444;49.742;6.114;2023-12-28T09:44:43;10.90;99.90
12761;DHT22;6444;49.742;6.114;2023-12-28T09:47:11;11.40;99.90
12761;DHT22;6444;49.742;6.114;2023-12-28T09:49:38;11.40;99.90
12761;DHT22;6444;49.742;6.114;2023-12-28T09:52:04;11.60;99.90
12761;DHT22;6444;49.742;6.114;2023-12-28T09:54:31;11.40;99.90
12761;DHT22;6444;49.742;6.114;2023-12-28T09:56:57;11.30;99.90
12761;DHT22;6444;49.742;6.114;2023-12-28T09:59:24;11.20;99.90
12761;DHT22;6444;49.742;6.114;2023-12-28T10:01:51;11.30;99.90
12761;DHT22;6444;49.742;6.114;2023-12-28T10:04:17;11.40;99.90
12761;DHT22;6444;49.742;6.114;2023-12-28T10:06:44;11.30;99.90
12761;DHT22;6444;49.742;6.114;2023-12-28T10:09:12;11.20;99.90
12761;DHT22;6444;49.742;6.114;2023-12-28T10:11:39;11.10;99.90
12761;DHT22;6444;49.742;6.114;2023-12-28T10:14:20;11.10;99.90
12761;DHT22;6444;49.742;6.114;2023-12-28T10:16:47;11.10;99.90
12761;DHT22;6444;49.742;6.114;2023-12-28T10:19:13;10.90;99.90
12761;DHT22;6444;49.742;6.114;2023-12-28T10:21:40;10.90;99.90
12761;DHT22;6444;49.742;6.114;2023-12-28T10:24:06;10.90;99.90
12761;DHT22;6444;49.742;6.114;2023-12-28T10:26:33;11.00;99.90
12761;DHT22;6444;49.742;6.114;2023-12-28T10:29:00;11.40;99.90
12761;DHT22;6444;49.742;6.114;2023-12-28T10:31:26;11.50;99.90
12761;DHT22;6444;49.742;6.114;2023-12-28T10:33:57;11.80;99.90
12761;DHT22;6444;49.742;6.114;2023-12-28T10:36:21;11.70;99.90
12761;DHT22;6444;49.742;6.114;2023-12-28T10:38:47;11.70;99.90
12761;DHT22;6444;49.742;6.114;2023-12-28T10:41:15;11.20;99.90
12761;DHT22;6444;49.742;6.114;2023-12-28T10:44:02;11.20;99.90
12761;DHT22;6444;49.742;6.114;2023-12-28T10:46:27;11.10;99.90
12761;DHT22;6444;49.742;6.114;2023-12-28T10:49:05;11.00;99.90
12761;DHT22;6444;49.742;6.114;2023-12-28T10:51:26;11.10;99.90
12761;DHT22;6444;49.742;6.114;2023-12-28T10:58:58;11.90;99.90
12761;DHT22;6444;49.742;6.114;2023-12-28T11:01:24;11.80;99.90
12761;DHT22;6444;49.742;6.114;2023-12-28T11:03:51;11.80;99.90
12761;DHT22;6444;49.742;6.114;2023-12-28T11:06:16;11.90;99.90
12761;DHT22;6444;49.742;6.114;2023-12-28T11:08:42;12.10;99.90
12761;DHT22;6444;49.742;6.114;2023-12-28T11:11:09;11.90;99.90
12761;DHT22;6444;49.742;6.114;2023-12-28T11:13:36;12.30;99.90
12761;DHT22;6444;49.742;6.114;2023-12-28T11:16:02;12.00;99.90
12761;DHT22;6444;49.742;6.114;2023-12-28T11:18:29;11.90;99.90
12761;DHT22;6444;49.742;6.114;2023-12-28T11:20:55;12.20;99.90
12761;DHT22;6444;49.742;6.114;2023-12-28T11:23:22;12.10;99.90
12761;DHT22;6444;49.742;6.114;2023-12-28T11:25:49;11.90;99.90
12761;DHT22;6444;49.742;6.114;2023-12-28T11:28:15;12.00;99.90
12761;DHT22;6444;49.742;6.114;2023-12-28T11:30:42;11.90;99.90
12761;DHT22;6444;49.742;6.114;2023-12-28T11:33:11;11.80;99.90
12761;DHT22;6444;49.742;6.114;2023-12-28T11:35:40;12.00;99.90
12761;DHT22;6444;49.742;6.114;2023-12-28T11:38:10;12.10;99.90
12761;DHT22;6444;49.742;6.114;2023-12-28T11:40:44;12.00;99.90
12761;DHT22;6444;49.742;6.114;2023-12-28T11:43:14;11.70;99.90
12761;DHT22;6444;49.742;6.114;2023-12-28T11:45:33;11.60;99.90
12761;DHT22;6444;49.742;6.114;2023-12-28T11:48:00;11.50;99.90
12761;DHT22;6444;49.742;6.114;2023-12-28T11:50:26;11.60;99.90
12761;DHT22;6444;49.742;6.114;2023-12-28T11:52:53;12.10;99.90
12761;DHT22;6444;49.742;6.114;2023-12-28T11:55:23;12.00;99.90
12761;DHT22;6444;49.742;6.114;2023-12-28T11:57:50;12.10;99.90
12761;DHT22;6444;49.742;6.114;2023-12-28T12:00:16;12.20;99.90
12761;DHT22;6444;49.742;6.114;2023-12-28T12:02:43;12.10;99.90
12761;DHT22;6444;49.742;6.114;2023-12-28T12:05:10;12.00;99.90
12761;DHT22;6444;49.742;6.114;2023-12-28T12:07:36;12.10;99.90
12761;DHT22;6444;49.742;6.114;2023-12-28T12:10:03;11.70;99.90
12761;DHT22;6444;49.742;6.114;2023-12-28T12:12:30;11.40;99.90
12761;DHT22;6444;49.742;6.114;2023-12-28T12:14:56;11.40;99.90
12761;DHT22;6444;49.742;6.114;2023-12-28T12:17:23;11.30;99.90
12761;DHT22;6444;49.742;6.114;2023-12-28T12:19:50;11.40;99.90
12761;DHT22;6444;49.742;6.114;2023-12-28T12:22:17;11.40;99.90
12761;DHT22;6444;49.742;6.114;2023-12-28T12:24:46;11.70;99.90
12761;DHT22;6444;49.742;6.114;2023-12-28T12:27:13;11.90;99.90
12761;DHT22;6444;49.742;6.114;2023-12-28T12:29:39;11.70;99.90
12761;DHT22;6444;49.742;6.114;2023-12-28T12:32:06;11.60;99.90
12761;DHT22;6444;49.742;6.114;2023-12-28T12:34:33;12.40;99.90
12761;DHT22;6444;49.742;6.114;2023-12-28T12:37:00;12.40;99.90
12761;DHT22;6444;49.742;6.114;2023-12-28T12:39:27;12.20;99.90
12761;DHT22;6444;49.742;6.114;2023-12-28T12:41:53;12.10;99.90
12761;DHT22;6444;49.742;6.114;2023-12-28T12:44:21;12.10;99.90
12761;DHT22;6444;49.742;6.114;2023-12-28T12:46:47;12.00;99.90
12761;DHT22;6444;49.742;6.114;2023-12-28T12:49:15;12.20;99.90
12761;DHT22;6444;49.742;6.114;2023-12-28T12:51:41;12.20;99.90
12761;DHT22;6444;49.742;6.114;2023-12-28T12:54:07;12.20;99.90
12761;DHT22;6444;49.742;6.114;2023-12-28T12:56:34;11.90;99.90
12761;DHT22;6444;49.742;6.114;2023-12-28T12:59:01;12.00;99.90
12761;DHT22;6444;49.742;6.114;2023-12-28T13:01:27;11.90;99.90
12761;DHT22;6444;49.742;6.114;2023-12-28T13:03:54;11.90;99.90
12761;DHT22;6444;49.742;6.114;2023-12-28T13:06:20;12.40;99.90
12761;DHT22;6444;49.742;6.114;2023-12-28T13:08:47;12.50;99.90
12761;DHT22;6444;49.742;6.114;2023-12-28T13:11:14;12.00;99.90
12761;DHT22;6444;49.742;6.114;2023-12-28T13:13:40;11.80;99.90
12761;DHT22;6444;49.742;6.114;2023-12-28T13:16:07;11.90;99.90
12761;DHT22;6444;49.742;6.114;2023-12-28T13:18:34;12.00;99.90
12761;DHT22;6444;49.742;6.114;2023-12-28T13:21:01;12.00;99.90
12761;DHT22;6444;49.742;6.114;2023-12-28T13:23:28;12.00;99.90
12761;DHT22;6444;49.742;6.114;2023-12-28T13:25:54;11.70;99.90
12761;DHT22;6444;49.742;6.114;2023-12-28T13:28:21;11.60;99.90
12761;DHT22;6444;49.742;6.114;2023-12-28T13:30:47;11.70;99.90
12761;DHT22;6444;49.742;6.114;2023-12-28T13:33:14;11.70;99.90
12761;DHT22;6444;49.742;6.114;2023-12-28T13:35:41;11.70;99.90
12761;DHT22;6444;49.742;6.114;2023-12-28T13:38:07;11.80;99.90
12761;DHT22;6444;49.742;6.114;2023-12-28T13:40:34;11.70;99.90
12761;DHT22;6444;49.742;6.114;2023-12-28T13:43:01;11.40;99.90
12761;DHT22;6444;49.742;6.114;2023-12-28T13:45:27;11.30;99.90
12761;DHT22;6444;49.742;6.114;2023-12-28T13:47:54;11.30;99.90
12761;DHT22;6444;49.742;6.114;2023-12-28T13:50:21;11.00;99.90
12761;DHT22;6444;49.742;6.114;2023-12-28T13:52:47;10.80;99.90
12761;DHT22;6444;49.742;6.114;2023-12-28T13:55:14;10.90;99.90
12761;DHT22;6444;49.742;6.114;2023-12-28T13:57:40;10.90;99.90
12761;DHT22;6444;49.742;6.114;2023-12-28T14:00:08;11.20;99.90
12761;DHT22;6444;49.742;6.114;2023-12-28T14:02:34;11.20;99.90
12761;DHT22;6444;49.742;6.114;2023-12-28T14:05:01;11.40;99.90
12761;DHT22;6444;49.742;6.114;2023-12-28T14:07:28;11.10;99.90
12761;DHT22;6444;49.742;6.114;2023-12-28T14:09:54;11.00;99.90
12761;DHT22;6444;49.742;6.114;2023-12-28T14:12:21;11.00;99.90
12761;DHT22;6444;49.742;6.114;2023-12-28T14:14:48;10.90;99.90
12761;DHT22;6444;49.742;6.114;2023-12-28T14:17:14;10.70;99.90
12761;DHT22;6444;49.742;6.114;2023-12-28T14:19:41;10.80;99.90
12761;DHT22;6444;49.742;6.114;2023-12-28T14:22:08;10.70;99.90
12761;DHT22;6444;49.742;6.114;2023-12-28T14:24:35;10.60;99.90
12761;DHT22;6444;49.742;6.114;2023-12-28T14:27:01;10.60;99.90
12761;DHT22;6444;49.742;6.114;2023-12-28T14:29:28;10.50;99.90
12761;DHT22;6444;49.742;6.114;2023-12-28T14:31:55;10.60;99.90
12761;DHT22;6444;49.742;6.114;2023-12-28T14:34:22;10.60;99.90
12761;DHT22;6444;49.742;6.114;2023-12-28T14:36:50;10.80;99.90
12761;DHT22;6444;49.742;6.114;2023-12-28T14:39:15;10.80;99.90
12761;DHT22;6444;49.742;6.114;2023-12-28T14:41:42;10.70;99.90
12761;DHT22;6444;49.742;6.114;2023-12-28T14:44:09;10.80;99.90
12761;DHT22;6444;49.742;6.114;2023-12-28T14:46:35;10.70;99.90
12761;DHT22;6444;49.742;6.114;2023-12-28T14:49:02;10.80;99.90
12761;DHT22;6444;49.742;6.114;2023-12-28T14:51:31;10.90;99.90
12761;DHT22;6444;49.742;6.114;2023-12-28T14:53:58;10.80;99.90
12761;DHT22;6444;49.742;6.114;2023-12-28T14:56:25;10.70;99.90
12761;DHT22;6444;49.742;6.114;2023-12-28T14:58:51;10.70;99.90
12761;DHT22;6444;49.742;6.114;2023-12-28T15:01:18;10.60;99.90
12761;DHT22;6444;49.742;6.114;2023-12-28T15:03:44;10.60;99.90
12761;DHT22;6444;49.742;6.114;2023-12-28T15:06:12;10.60;99.90
12761;DHT22;6444;49.742;6.114;2023-12-28T15:08:38;10.60;99.90
12761;DHT22;6444;49.742;6.114;2023-12-28T15:11:05;10.50;99.90
12761;DHT22;6444;49.742;6.114;2023-12-28T15:13:34;10.70;99.90
12761;DHT22;6444;49.742;6.114;2023-12-28T15:16:01;10.50;99.90
12761;DHT22;6444;49.742;6.114;2023-12-28T15:18:28;10.70;99.90
12761;DHT22;6444;49.742;6.114;2023-12-28T15:20:55;10.60;99.90
12761;DHT22;6444;49.742;6.114;2023-12-28T15:23:22;10.60;99.90
12761;DHT22;6444;49.742;6.114;2023-12-28T15:25:48;10.50;99.90
12761;DHT22;6444;49.742;6.114;2023-12-28T15:28:15;10.80;99.90
12761;DHT22;6444;49.742;6.114;2023-12-28T15:30:42;11.00;99.90
12761;DHT22;6444;49.742;6.114;2023-12-28T15:33:09;10.80;99.90
12761;DHT22;6444;49.742;6.114;2023-12-28T15:35:39;10.80;99.90
12761;DHT22;6444;49.742;6.114;2023-12-28T15:38:20;11.30;99.90
12761;DHT22;6444;49.742;6.114;2023-12-28T15:40:47;11.20;99.90
12761;DHT22;6444;49.742;6.114;2023-12-28T15:43:13;10.70;99.90
12761;DHT22;6444;49.742;6.114;2023-12-28T15:45:40;10.60;99.90
12761;DHT22;6444;49.742;6.114;2023-12-28T15:48:07;10.60;99.90
12761;DHT22;6444;49.742;6.114;2023-12-28T15:50:36;10.50;99.90
12761;DHT22;6444;49.742;6.114;2023-12-28T15:53:03;10.60;99.90
12761;DHT22;6444;49.742;6.114;2023-12-28T15:55:29;10.70;99.90
12761;DHT22;6444;49.742;6.114;2023-12-28T15:58:04;11.00;99.90
12761;DHT22;6444;49.742;6.114;2023-12-28T16:00:28;11.10;99.90